Track Кузьмин Василий

Time Latitude Longitude Accuracy (66% radius in meters) Altitude (meters) Speed (km/hour) Bearing (degrees) Battery (%) GPS flag
11:20:58 60.370679 29.556266 32 64 0 213.93284606934 43 0 delete
11:20:47 60.370679 29.556266 32 64 0 213.93284606934 43 0 delete
11:20:35 60.370679 29.556266 32 64 0 213.93284606934 43 0 delete
11:20:25 60.370679 29.556266 32 64 0 213.93284606934 43 0 delete
11:20:14 60.370679 29.556266 32 64 0 213.93284606934 43 0 delete
11:20:03 60.370679 29.556266 32 64 0 213.93284606934 43 0 delete
11:19:53 60.370679 29.556266 32 64 0 213.93284606934 43 0 delete
11:19:42 60.370679 29.556266 32 64 0 213.93284606934 43 0 delete
11:19:31 60.370679 29.556266 32 64 0 213.93284606934 43 0 delete
11:19:21 60.370679 29.556266 32 64 0 213.93284606934 43 0 delete
11:19:10 60.370679 29.556266 32 64 0 213.93284606934 43 0 delete
11:19:00 60.370679 29.556266 32 64 0 213.93284606934 43 0 delete
11:18:49 60.370679 29.556266 32 64 0 213.93284606934 43 0 delete
11:18:38 60.370679 29.556266 32 64 0 213.93284606934 43 0 delete
11:18:28 60.370679 29.556266 32 64 0 213.93284606934 43 0 delete
11:18:17 60.370679 29.556266 32 64 0 213.93284606934 43 0 delete
11:18:07 60.370679 29.556266 32 64 0 213.93284606934 43 0 delete
11:17:56 60.370679 29.556266 32 64 0 213.93284606934 43 0 delete
11:17:45 60.370679 29.556266 32 64 0 213.93284606934 43 0 delete
11:17:34 60.370679 29.556266 32 64 0 213.93284606934 43 0 delete
11:17:24 60.370679 29.556266 32 64 0 213.93284606934 43 0 delete
11:17:13 60.370679 29.556266 32 64 0 213.93284606934 43 0 delete
11:17:02 60.370679 29.556266 32 64 0 213.93284606934 43 0 delete
11:16:51 60.370679 29.556266 32 64 0 213.93284606934 43 0 delete
11:16:40 60.370679 29.556266 32 64 0 213.93284606934 43 0 delete
11:16:30 60.370679 29.556266 32 64 0 213.93284606934 43 0 delete
11:16:19 60.370679 29.556266 32 64 0 213.93284606934 43 0 delete
11:16:08 60.370679 29.556266 32 64 0 213.93284606934 43 0 delete
11:15:58 60.370679 29.556266 32 64 0 213.93284606934 43 0 delete
11:15:47 60.370679 29.556266 32 64 0 213.93284606934 43 0 delete
11:15:36 60.370679 29.556266 32 64 0 213.93284606934 43 0 delete
11:15:26 60.370679 29.556266 32 64 0 213.93284606934 47 0 delete
11:15:15 60.370679 29.556266 32 64 0 213.93284606934 47 0 delete
11:15:05 60.370679 29.556266 32 64 0 213.93284606934 47 0 delete
11:14:54 60.370679 29.556266 32 64 0 213.93284606934 47 0 delete
11:14:43 60.370679 29.556266 32 64 0 213.93284606934 47 0 delete
11:14:33 60.370679 29.556266 32 64 0 213.93284606934 47 0 delete
11:14:22 60.370679 29.556266 32 64 0 213.93284606934 47 0 delete
11:14:12 60.370679 29.556266 32 64 0 213.93284606934 47 0 delete
11:14:01 60.370679 29.556266 32 64 0 213.93284606934 47 0 delete
11:13:51 60.370679 29.556266 32 64 0 213.93284606934 47 0 delete
10:13:33 60.370679 29.556266 24 68 0 213.93284606934 47 1 delete
10:13:29 60.370679 29.556266 32 64 0 213.93284606934 47 1 delete
10:13:26 60.370709 29.556392 24 62 0 206.00006103516 47 1 delete
10:13:18 60.370715 29.556411 16 55 0 206.00006103516 47 1 delete
10:13:08 60.370718 29.556417 16 55 0 206.00006103516 47 1 delete
10:12:57 60.370716 29.556442 32 52 0 206.00006103516 47 1 delete
10:12:49 60.370719 29.556490 16 45 0 206.00006103516 47 1 delete
10:12:47 60.370724 29.556499 16 46 0 206.00006103516 47 1 delete
10:12:42 60.370762 29.556528 32 45 0 212.55326843262 47 1 delete